Time;durP1;ratioP1;P1;durP2;ratioP2;P2;SDS_P1;SDS_P2;PMS_P1;PMS_P2;Temp;Humidity;BMP_temperature;BMP_pressure;BME280_temperature;BME280_humidity;BME280_pressure;Samples;Min_cycle;Max_cycle;Signal;HPM_P1;HPM_P2
2023/07/29 00:00:45;;;;;;;5.20;2.30;;;;;;;;;;107057;1274;22586;-77
2023/07/29 00:03:29;;;;;;;3.80;1.80;;;;;;;;;;107013;1274;24994;-80
2023/07/29 00:05:56;;;;;;;6.00;2.30;;;;;;;;;;107047;1264;24215;-81
2023/07/29 00:08:26;;;;;;;6.20;2.60;;;;;;;;;;106917;1275;22532;-77
2023/07/29 00:10:53;;;;;;;6.40;3.00;;;;;;;;;;107052;1274;25275;-81
2023/07/29 00:13:20;;;;;;;8.00;2.90;;;;;;;;;;107113;1273;25470;-77
2023/07/29 00:15:47;;;;;;;7.00;2.80;;;;;;;;;;107113;1257;22543;-79
2023/07/29 00:18:16;;;;;;;6.70;2.90;;;;;;;;;;107147;1274;22530;-80
2023/07/29 00:20:42;;;;;;;6.70;2.20;;;;;;;;;;107046;1274;25447;-75
2023/07/29 00:23:09;;;;;;;5.70;2.50;;;;;;;;;;107164;1251;24198;-80
2023/07/29 00:25:47;;;;;;;5.30;2.20;;;;;;;;;;107067;1257;22568;-82
2023/07/29 00:28:14;;;;;;;6.10;2.40;;;;;;;;;;107167;1275;25343;-77
2023/07/29 00:30:41;;;;;;;5.10;2.30;;;;;;;;;;107041;1275;25278;-74
2023/07/29 00:33:08;;;;;;;5.50;2.20;;;;;;;;;;107113;1275;22510;-77
2023/07/29 00:35:35;;;;;;;6.20;2.20;;;;;;;;;;106905;1257;25337;-78
2023/07/29 00:38:02;;;;;;;4.60;2.00;;;;;;;;;;107052;1274;22530;-77
2023/07/29 00:40:29;;;;;;;5.00;1.90;;;;;;;;;;107152;1275;22532;-81
2023/07/29 00:42:55;;;;;;;4.20;1.80;;;;;;;;;;107074;1274;22766;-81
2023/07/29 00:45:24;;;;;;;5.10;1.80;;;;;;;;;;106961;1275;25309;-74
2023/07/29 00:48:12;;;;;;;3.90;1.80;;;;;;;;;;107114;1275;25223;-78
2023/07/29 00:50:38;;;;;;;3.70;1.60;;;;;;;;;;106815;1275;25288;-75
2023/07/29 00:53:05;;;;;;;4.60;1.70;;;;;;;;;;106745;1275;22524;-77
2023/07/29 00:55:33;;;;;;;4.80;1.60;;;;;;;;;;106933;1257;22524;-81
2023/07/29 00:57:59;;;;;;;5.80;1.70;;;;;;;;;;107116;1274;25449;-81
2023/07/29 01:00:26;;;;;;;7.10;1.70;;;;;;;;;;106921;1274;22524;-76
2023/07/29 01:02:54;;;;;;;4.40;1.70;;;;;;;;;;107150;1274;22577;-76
2023/07/29 01:05:22;;;;;;;4.10;1.60;;;;;;;;;;107027;1251;25508;-81
2023/07/29 01:07:55;;;;;;;4.30;1.70;;;;;;;;;;107065;1275;22527;-79
2023/07/29 01:10:41;;;;;;;5.10;1.80;;;;;;;;;;107081;1275;22537;-80
2023/07/29 01:13:21;;;;;;;5.50;1.40;;;;;;;;;;106877;1275;24212;-81
2023/07/29 01:15:55;;;;;;;3.80;1.60;;;;;;;;;;107026;1258;22528;-81
2023/07/29 01:18:32;;;;;;;3.40;1.30;;;;;;;;;;107164;1274;25334;-74
2023/07/29 01:21:02;;;;;;;4.60;1.40;;;;;;;;;;106922;1266;22551;-82
2023/07/29 01:23:34;;;;;;;5.40;1.80;;;;;;;;;;107161;1274;25220;-79
2023/07/29 01:26:01;;;;;;;4.50;1.70;;;;;;;;;;107096;1266;25567;-82
2023/07/29 01:28:28;;;;;;;4.10;1.50;;;;;;;;;;106899;1270;22521;-80
2023/07/29 01:31:15;;;;;;;4.20;1.60;;;;;;;;;;106906;1275;22535;-77
2023/07/29 01:33:45;;;;;;;6.00;1.70;;;;;;;;;;106868;1275;22524;-74
2023/07/29 01:36:15;;;;;;;5.60;1.70;;;;;;;;;;107144;1274;22496;-82
2023/07/29 01:38:44;;;;;;;4.60;1.60;;;;;;;;;;107145;1274;25462;-75
2023/07/29 01:41:11;;;;;;;5.40;1.80;;;;;;;;;;107187;1274;25407;-79
2023/07/29 01:43:43;;;;;;;3.60;1.50;;;;;;;;;;107129;1274;24154;-79
2023/07/29 01:46:11;;;;;;;4.70;1.90;;;;;;;;;;106884;1251;25353;-77
2023/07/29 01:48:39;;;;;;;4.20;2.00;;;;;;;;;;107121;1275;23398;-81
2023/07/29 01:51:06;;;;;;;5.70;1.70;;;;;;;;;;106952;1251;22547;-79
2023/07/29 01:53:33;;;;;;;3.30;1.50;;;;;;;;;;106741;1275;23089;-76
2023/07/29 01:56:00;;;;;;;3.90;1.60;;;;;;;;;;106778;1251;25236;-76
2023/07/29 01:58:27;;;;;;;3.50;1.50;;;;;;;;;;106794;1274;24356;-79
2023/07/29 02:00:53;;;;;;;3.80;1.70;;;;;;;;;;107032;1273;22472;-74
2023/07/29 02:03:20;;;;;;;4.20;1.50;;;;;;;;;;107141;1274;25343;-77
2023/07/29 02:05:47;;;;;;;3.90;1.70;;;;;;;;;;107166;1274;25340;-78
2023/07/29 02:08:14;;;;;;;2.80;1.30;;;;;;;;;;107043;1257;24230;-82
2023/07/29 02:10:44;;;;;;;2.90;1.50;;;;;;;;;;107014;1275;22732;-76
2023/07/29 02:13:12;;;;;;;5.80;1.70;;;;;;;;;;107085;1275;22520;-81
2023/07/29 02:15:39;;;;;;;5.50;2.40;;;;;;;;;;107027;1275;24564;-82
2023/07/29 02:18:07;;;;;;;6.80;2.40;;;;;;;;;;107103;1255;22871;-75
2023/07/29 02:20:34;;;;;;;6.10;2.50;;;;;;;;;;107120;1275;22531;-74
2023/07/29 02:23:00;;;;;;;5.20;2.40;;;;;;;;;;107095;1263;22546;-75
2023/07/29 02:25:27;;;;;;;7.40;2.50;;;;;;;;;;106991;1275;24299;-77
2023/07/29 02:27:54;;;;;;;7.80;2.40;;;;;;;;;;106905;1257;22527;-74
2023/07/29 02:30:21;;;;;;;6.40;2.60;;;;;;;;;;106871;1276;22543;-82
2023/07/29 02:32:50;;;;;;;6.70;2.50;;;;;;;;;;107044;1275;25347;-77
2023/07/29 02:35:17;;;;;;;5.60;2.40;;;;;;;;;;106929;1275;22508;-78
2023/07/29 02:37:44;;;;;;;5.80;2.50;;;;;;;;;;106866;1261;25268;-81
2023/07/29 02:40:11;;;;;;;6.50;2.40;;;;;;;;;;107023;1275;22537;-81
2023/07/29 02:42:38;;;;;;;5.90;2.00;;;;;;;;;;107040;1275;22524;-78
2023/07/29 02:45:09;;;;;;;6.00;2.00;;;;;;;;;;107155;1274;25353;-75
2023/07/29 02:47:36;;;;;;;6.30;1.80;;;;;;;;;;107093;1275;24190;-78
2023/07/29 02:50:04;;;;;;;3.70;1.50;;;;;;;;;;107065;1275;24234;-75
2023/07/29 02:52:31;;;;;;;5.50;1.70;;;;;;;;;;107042;1276;24337;-75
2023/07/29 02:54:58;;;;;;;4.30;1.60;;;;;;;;;;106886;1276;22530;-74
2023/07/29 02:57:24;;;;;;;4.80;1.60;;;;;;;;;;107080;1251;22524;-78
2023/07/29 02:59:51;;;;;;;4.80;1.60;;;;;;;;;;106910;1275;25333;-78
2023/07/29 03:02:18;;;;;;;3.60;1.50;;;;;;;;;;106889;1268;22540;-76
2023/07/29 03:04:45;;;;;;;6.00;1.90;;;;;;;;;;106880;1275;22708;-76
2023/07/29 03:07:12;;;;;;;5.20;1.70;;;;;;;;;;106981;1275;22522;-77
2023/07/29 03:09:39;;;;;;;5.10;1.70;;;;;;;;;;107023;1256;22524;-76
2023/07/29 03:12:06;;;;;;;4.50;1.80;;;;;;;;;;106880;1276;22531;-75
2023/07/29 03:14:32;;;;;;;5.00;1.80;;;;;;;;;;106881;1275;23128;-80
2023/07/29 03:17:02;;;;;;;4.20;1.40;;;;;;;;;;110604;1275;22137;-74
2023/07/29 03:19:29;;;;;;;3.70;1.60;;;;;;;;;;110483;1259;22199;-74
2023/07/29 03:21:55;;;;;;;3.90;1.60;;;;;;;;;;110605;1275;22365;-74
2023/07/29 03:24:22;;;;;;;4.30;1.50;;;;;;;;;;110630;1275;23212;-74
2023/07/29 03:26:49;;;;;;;4.20;1.30;;;;;;;;;;110599;1274;22843;-74
2023/07/29 03:29:16;;;;;;;3.50;1.30;;;;;;;;;;110636;1254;22115;-75
2023/07/29 03:31:42;;;;;;;2.90;1.40;;;;;;;;;;110487;1275;22326;-74
2023/07/29 03:34:11;;;;;;;3.00;1.40;;;;;;;;;;110518;1276;21999;-74
2023/07/29 03:36:38;;;;;;;3.60;1.60;;;;;;;;;;110470;1276;22982;-74
2023/07/29 03:39:04;;;;;;;5.10;1.80;;;;;;;;;;110505;1259;22117;-74
2023/07/29 03:41:31;;;;;;;6.90;2.20;;;;;;;;;;110623;1275;22106;-75
2023/07/29 03:43:58;;;;;;;5.60;2.00;;;;;;;;;;110562;1275;22085;-74
2023/07/29 03:46:25;;;;;;;6.90;1.90;;;;;;;;;;110571;1275;22118;-74
2023/07/29 03:48:51;;;;;;;4.20;1.70;;;;;;;;;;110571;1257;22951;-74
2023/07/29 03:51:18;;;;;;;4.00;1.50;;;;;;;;;;110657;1276;22894;-75
2023/07/29 03:53:45;;;;;;;4.00;1.70;;;;;;;;;;110444;1276;22434;-74
2023/07/29 03:56:12;;;;;;;3.70;1.50;;;;;;;;;;110627;1276;22100;-74
2023/07/29 03:58:38;;;;;;;2.80;1.50;;;;;;;;;;110603;1253;22146;-74
2023/07/29 04:01:06;;;;;;;4.40;1.50;;;;;;;;;;110620;1275;22754;-74
2023/07/29 04:03:33;;;;;;;3.50;1.50;;;;;;;;;;110477;1275;22090;-74
2023/07/29 04:06:00;;;;;;;5.30;1.50;;;;;;;;;;110474;1275;22154;-74
2023/07/29 04:08:27;;;;;;;5.00;1.50;;;;;;;;;;110574;1275;22583;-75
2023/07/29 04:10:54;;;;;;;3.20;1.50;;;;;;;;;;110908;1258;23095;-74
2023/07/29 04:13:21;;;;;;;5.60;1.60;;;;;;;;;;110473;1276;22102;-74
2023/07/29 04:15:48;;;;;;;3.90;1.70;;;;;;;;;;110530;1276;22180;-74
2023/07/29 04:18:14;;;;;;;5.00;1.50;;;;;;;;;;110423;1277;22126;-75
2023/07/29 04:20:42;;;;;;;3.90;1.40;;;;;;;;;;110836;1256;23119;-74
2023/07/29 04:23:08;;;;;;;4.40;1.70;;;;;;;;;;110481;1275;22578;-74
2023/07/29 04:25:35;;;;;;;4.70;1.60;;;;;;;;;;110491;1275;22090;-74
2023/07/29 04:28:04;;;;;;;4.00;1.60;;;;;;;;;;110570;1275;22903;-74
2023/07/29 04:30:31;;;;;;;4.60;1.40;;;;;;;;;;110733;1254;22118;-74
2023/07/29 04:32:58;;;;;;;5.50;1.60;;;;;;;;;;110476;1276;22130;-74
2023/07/29 04:35:24;;;;;;;5.40;1.60;;;;;;;;;;110621;1276;22239;-74
2023/07/29 04:37:51;;;;;;;3.90;1.50;;;;;;;;;;110533;1270;22138;-74
2023/07/29 04:40:18;;;;;;;4.40;1.50;;;;;;;;;;110520;1259;22115;-74
2023/07/29 04:42:45;;;;;;;4.60;1.60;;;;;;;;;;110489;1276;22125;-74
2023/07/29 04:45:11;;;;;;;3.50;1.70;;;;;;;;;;110601;1276;22712;-75
2023/07/29 04:47:38;;;;;;;3.60;1.60;;;;;;;;;;110459;1276;22780;-74
2023/07/29 04:50:06;;;;;;;4.30;1.40;;;;;;;;;;110516;1256;22189;-74
2023/07/29 04:52:32;;;;;;;3.80;1.40;;;;;;;;;;110323;1276;22062;-74
2023/07/29 04:54:59;;;;;;;2.90;1.30;;;;;;;;;;110488;1276;22156;-74
2023/07/29 04:57:26;;;;;;;3.00;1.40;;;;;;;;;;110461;1276;22213;-74
2023/07/29 04:59:55;;;;;;;4.10;1.20;;;;;;;;;;110486;1252;22314;-74
2023/07/29 05:02:22;;;;;;;4.00;1.50;;;;;;;;;;110618;1276;22726;-74
2023/07/29 05:04:49;;;;;;;4.10;1.50;;;;;;;;;;110609;1276;22155;-74
2023/07/29 05:07:16;;;;;;;4.10;1.50;;;;;;;;;;110565;1276;22191;-74
2023/07/29 05:09:43;;;;;;;4.10;1.50;;;;;;;;;;110425;1276;22350;-74
2023/07/29 05:12:09;;;;;;;3.20;1.40;;;;;;;;;;110331;1256;22801;-74
2023/07/29 05:14:36;;;;;;;3.60;1.40;;;;;;;;;;110472;1276;22131;-74
2023/07/29 05:17:03;;;;;;;5.40;1.90;;;;;;;;;;110599;1275;22107;-73
2023/07/29 05:19:29;;;;;;;5.40;1.90;;;;;;;;;;110517;1275;22906;-74
2023/07/29 05:21:57;;;;;;;5.40;1.90;;;;;;;;;;110898;1253;22912;-73
2023/07/29 05:24:24;;;;;;;4.20;1.50;;;;;;;;;;110447;1276;22114;-73
2023/07/29 05:26:50;;;;;;;3.00;1.40;;;;;;;;;;110624;1276;22136;-74
2023/07/29 05:29:17;;;;;;;3.40;1.60;;;;;;;;;;110454;1276;22111;-74
2023/07/29 05:31:44;;;;;;;5.80;1.50;;;;;;;;;;108050;1257;3732913;-74
2023/07/29 05:34:11;;;;;;;5.00;1.60;;;;;;;;;;110506;1275;22093;-74
2023/07/29 05:36:39;;;;;;;3.10;1.70;;;;;;;;;;110495;1275;22133;-73
2023/07/29 05:39:05;;;;;;;6.70;1.90;;;;;;;;;;110380;1275;22827;-74
2023/07/29 05:41:32;;;;;;;4.60;1.90;;;;;;;;;;110462;1260;22103;-73
2023/07/29 05:43:59;;;;;;;4.80;2.10;;;;;;;;;;110463;1276;22128;-74
2023/07/29 05:46:26;;;;;;;4.40;1.80;;;;;;;;;;110444;1276;22125;-74
2023/07/29 05:48:52;;;;;;;4.60;1.90;;;;;;;;;;110414;1276;22964;-73
2023/07/29 05:51:19;;;;;;;5.60;1.90;;;;;;;;;;110426;1259;22121;-73
2023/07/29 05:53:46;;;;;;;3.30;1.70;;;;;;;;;;110518;1275;22153;-73
2023/07/29 05:56:12;;;;;;;4.20;1.60;;;;;;;;;;110516;1263;22104;-74
2023/07/29 05:58:39;;;;;;;4.90;1.60;;;;;;;;;;110486;1275;22822;-73
2023/07/29 06:01:07;;;;;;;3.40;1.30;;;;;;;;;;110529;1253;22124;-74
2023/07/29 06:03:34;;;;;;;3.10;1.40;;;;;;;;;;110430;1276;22104;-74
2023/07/29 06:06:01;;;;;;;4.00;1.40;;;;;;;;;;110376;1276;22087;-74
2023/07/29 06:08:32;;;;;;;2.80;1.20;;;;;;;;;;110245;1276;22109;-73
2023/07/29 06:10:59;;;;;;;4.10;1.60;;;;;;;;;;110436;1276;22371;-73
2023/07/29 06:13:26;;;;;;;4.00;1.50;;;;;;;;;;110333;1260;22170;-74
2023/07/29 06:15:52;;;;;;;2.80;1.20;;;;;;;;;;110506;1275;22125;-74
2023/07/29 06:18:19;;;;;;;3.90;1.70;;;;;;;;;;110567;1275;22303;-73
2023/07/29 06:20:46;;;;;;;3.60;1.70;;;;;;;;;;110559;1275;22201;-74
2023/07/29 06:23:12;;;;;;;4.40;1.40;;;;;;;;;;110653;1256;22119;-74
2023/07/29 06:25:39;;;;;;;4.40;1.50;;;;;;;;;;110229;1276;22113;-74
2023/07/29 06:28:06;;;;;;;4.30;1.60;;;;;;;;;;110589;1276;22084;-73
2023/07/29 06:30:32;;;;;;;3.90;1.70;;;;;;;;;;110253;1276;22079;-73
2023/07/29 06:32:59;;;;;;;2.40;1.30;;;;;;;;;;110527;1257;22133;-74
2023/07/29 06:35:26;;;;;;;2.90;1.50;;;;;;;;;;110496;1275;22117;-74
2023/07/29 06:37:52;;;;;;;2.70;1.40;;;;;;;;;;110603;1275;22101;-75
2023/07/29 06:40:19;;;;;;;3.40;1.50;;;;;;;;;;110481;1276;22980;-74
2023/07/29 06:42:46;;;;;;;3.80;1.60;;;;;;;;;;110756;1257;22185;-74
2023/07/29 06:45:13;;;;;;;3.10;1.60;;;;;;;;;;110489;1276;22091;-74
2023/07/29 06:47:39;;;;;;;5.20;1.50;;;;;;;;;;110491;1276;22603;-74
2023/07/29 06:50:06;;;;;;;3.60;1.60;;;;;;;;;;110512;1276;22149;-74
2023/07/29 06:52:33;;;;;;;3.80;1.70;;;;;;;;;;110613;1253;22132;-74
2023/07/29 06:55:00;;;;;;;3.10;1.60;;;;;;;;;;110316;1276;22100;-74
2023/07/29 06:57:27;;;;;;;3.10;1.40;;;;;;;;;;110634;1275;22106;-74
2023/07/29 06:59:53;;;;;;;2.80;1.30;;;;;;;;;;110474;1276;22808;-74
2023/07/29 07:02:20;;;;;;;3.30;1.60;;;;;;;;;;110592;1254;22149;-74
2023/07/29 07:04:47;;;;;;;3.20;1.50;;;;;;;;;;110362;1277;22141;-74
2023/07/29 07:07:15;;;;;;;2.60;1.60;;;;;;;;;;110361;1277;22860;-74
2023/07/29 07:09:41;;;;;;;2.50;1.50;;;;;;;;;;110356;1276;21994;-74
2023/07/29 07:12:08;;;;;;;4.10;1.60;;;;;;;;;;110350;1276;22336;-76
2023/07/29 07:14:34;;;;;;;2.70;1.50;;;;;;;;;;110751;1256;22125;-75
2023/07/29 07:17:01;;;;;;;2.90;1.50;;;;;;;;;;110592;1276;22118;-75
2023/07/29 07:19:28;;;;;;;3.80;1.50;;;;;;;;;;110629;1276;22269;-74
2023/07/29 07:21:54;;;;;;;3.70;1.40;;;;;;;;;;110321;1276;22435;-73
2023/07/29 07:24:22;;;;;;;3.40;1.40;;;;;;;;;;110446;1259;22314;-74
2023/07/29 07:26:48;;;;;;;3.00;1.40;;;;;;;;;;110320;1277;22474;-74
2023/07/29 07:29:16;;;;;;;3.10;1.60;;;;;;;;;;110493;1276;22120;-75
2023/07/29 07:31:49;;;;;;;2.90;1.30;;;;;;;;;;110507;1277;22428;-74
2023/07/29 07:34:16;;;;;;;4.50;1.60;;;;;;;;;;110825;1254;22112;-74
2023/07/29 07:36:43;;;;;;;4.30;1.30;;;;;;;;;;110575;1276;22105;-74
2023/07/29 07:39:10;;;;;;;3.80;1.50;;;;;;;;;;110620;1276;22207;-74
2023/07/29 07:41:37;;;;;;;2.60;1.50;;;;;;;;;;110565;1276;22881;-75
2023/07/29 07:44:04;;;;;;;4.20;1.60;;;;;;;;;;110666;1259;22107;-74
2023/07/29 07:46:31;;;;;;;3.30;1.40;;;;;;;;;;110464;1277;22104;-74
2023/07/29 07:48:58;;;;;;;2.80;1.40;;;;;;;;;;110481;1277;22094;-74
2023/07/29 07:51:25;;;;;;;2.80;1.40;;;;;;;;;;110460;1277;22054;-74
2023/07/29 07:53:52;;;;;;;3.20;1.60;;;;;;;;;;110415;1259;22846;-74
2023/07/29 07:56:21;;;;;;;3.50;1.80;;;;;;;;;;110439;1276;22101;-74
2023/07/29 07:58:48;;;;;;;4.10;1.70;;;;;;;;;;110578;1276;22132;-74
2023/07/29 08:01:15;;;;;;;4.00;1.90;;;;;;;;;;110419;1276;23012;-74
2023/07/29 08:03:42;;;;;;;3.10;1.90;;;;;;;;;;110638;1259;22628;-74
2023/07/29 08:06:09;;;;;;;3.30;1.70;;;;;;;;;;110212;1277;22817;-75
2023/07/29 08:08:36;;;;;;;4.90;1.80;;;;;;;;;;110464;1277;22109;-74
2023/07/29 08:11:03;;;;;;;3.40;1.80;;;;;;;;;;110455;1277;22902;-74
2023/07/29 08:13:30;;;;;;;4.00;1.80;;;;;;;;;;110486;1254;22329;-74
2023/07/29 08:15:57;;;;;;;4.90;1.80;;;;;;;;;;110177;1277;22118;-75
2023/07/29 08:18:25;;;;;;;5.00;2.20;;;;;;;;;;110460;1277;22106;-74
2023/07/29 08:20:54;;;;;;;3.10;2.00;;;;;;;;;;110449;1277;22139;-75
2023/07/29 08:23:21;;;;;;;3.60;2.20;;;;;;;;;;110366;1277;22862;-75
2023/07/29 08:26:00;;;;;;;4.40;2.20;;;;;;;;;;110362;1260;22104;-75
2023/07/29 08:28:28;;;;;;;5.80;2.40;;;;;;;;;;110392;1278;22787;-75
2023/07/29 08:30:55;;;;;;;4.20;2.20;;;;;;;;;;110249;1278;22107;-76
2023/07/29 08:33:22;;;;;;;3.90;2.30;;;;;;;;;;110290;1278;22105;-75
2023/07/29 08:35:50;;;;;;;5.00;2.00;;;;;;;;;;110465;1257;22859;-75
2023/07/29 08:38:19;;;;;;;4.30;2.50;;;;;;;;;;110439;1278;22134;-76
2023/07/29 08:40:57;;;;;;;6.70;2.10;;;;;;;;;;110373;1278;22124;-77
2023/07/29 08:43:31;;;;;;;5.60;2.20;;;;;;;;;;110246;1278;22140;-75
2023/07/29 08:46:00;;;;;;;4.40;2.50;;;;;;;;;;110292;1259;22120;-75
2023/07/29 08:48:53;;;;;;;3.70;2.40;;;;;;;;;;110224;1278;22098;-75
2023/07/29 08:51:21;;;;;;;4.30;2.00;;;;;;;;;;110308;1279;22137;-75
2023/07/29 08:53:49;;;;;;;3.90;2.30;;;;;;;;;;110222;1279;22296;-76
2023/07/29 08:56:17;;;;;;;5.10;2.60;;;;;;;;;;110590;1259;22111;-76
2023/07/29 08:58:48;;;;;;;5.20;2.60;;;;;;;;;;110308;1278;22779;-76
2023/07/29 09:01:16;;;;;;;5.50;2.40;;;;;;;;;;110327;1278;22793;-75
2023/07/29 09:03:44;;;;;;;6.20;3.50;;;;;;;;;;110318;1278;22125;-76
2023/07/29 09:06:12;;;;;;;4.10;2.30;;;;;;;;;;110635;1256;22133;-77
2023/07/29 09:08:40;;;;;;;4.40;2.40;;;;;;;;;;110316;1279;22114;-77
2023/07/29 09:11:07;;;;;;;8.60;2.40;;;;;;;;;;110227;1279;22795;-76
2023/07/29 09:13:35;;;;;;;5.30;2.30;;;;;;;;;;110282;1279;21999;-75
2023/07/29 09:16:05;;;;;;;4.70;2.10;;;;;;;;;;110406;1259;22127;-75
2023/07/29 09:18:32;;;;;;;3.30;2.00;;;;;;;;;;110455;1276;22894;-75
2023/07/29 09:21:00;;;;;;;5.50;2.40;;;;;;;;;;110605;1276;22741;-76
2023/07/29 09:23:28;;;;;;;6.90;2.60;;;;;;;;;;110583;1276;22248;-77
2023/07/29 09:26:02;;;;;;;3.50;2.00;;;;;;;;;;110396;1262;22133;-77
2023/07/29 09:28:37;;;;;;;4.70;2.00;;;;;;;;;;110302;1277;22555;-76
2023/07/29 09:31:04;;;;;;;3.70;2.10;;;;;;;;;;110199;1277;22829;-77
2023/07/29 09:33:39;;;;;;;4.20;2.60;;;;;;;;;;110302;1277;22895;-76
2023/07/29 09:36:11;;;;;;;4.10;2.20;;;;;;;;;;110614;1256;22154;-76
2023/07/29 09:38:40;;;;;;;3.90;2.30;;;;;;;;;;110549;1277;22770;-77
2023/07/29 09:41:08;;;;;;;5.40;2.60;;;;;;;;;;110524;1276;22093;-77
2023/07/29 09:43:40;;;;;;;4.20;2.20;;;;;;;;;;110457;1276;22897;-75
2023/07/29 09:46:08;;;;;;;5.90;2.50;;;;;;;;;;110609;1259;22134;-76
2023/07/29 09:48:39;;;;;;;5.70;2.70;;;;;;;;;;110337;1278;22122;-76
2023/07/29 09:51:11;;;;;;;3.70;2.30;;;;;;;;;;110483;1277;22100;-76
2023/07/29 09:53:45;;;;;;;4.70;2.60;;;;;;;;;;110247;1277;22203;-77
2023/07/29 09:56:15;;;;;;;7.90;2.60;;;;;;;;;;110541;1259;22120;-77
2023/07/29 09:58:45;;;;;;;8.20;5.20;;;;;;;;;;110555;1276;22062;-76
2023/07/29 10:01:14;;;;;;;5.60;3.00;;;;;;;;;;110367;1276;22804;-76
2023/07/29 10:03:43;;;;;;;4.80;2.80;;;;;;;;;;110190;1276;22138;-76
2023/07/29 10:06:15;;;;;;;4.20;2.60;;;;;;;;;;110507;1259;22123;-77
2023/07/29 10:08:44;;;;;;;5.10;3.00;;;;;;;;;;110261;1278;22102;-78
2023/07/29 10:11:13;;;;;;;18.70;11.10;;;;;;;;;;110275;1278;22144;-77
2023/07/29 10:13:42;;;;;;;6.30;2.90;;;;;;;;;;110264;1277;22110;-77
2023/07/29 10:16:12;;;;;;;4.40;2.20;;;;;;;;;;110252;1254;22551;-77
2023/07/29 10:18:42;;;;;;;4.60;2.20;;;;;;;;;;110350;1276;22325;-79
2023/07/29 10:21:12;;;;;;;4.10;2.00;;;;;;;;;;110345;1276;23130;-77
2023/07/29 10:23:43;;;;;;;4.90;2.20;;;;;;;;;;110338;1276;22115;-77
2023/07/29 10:26:14;;;;;;;4.50;1.90;;;;;;;;;;110283;1257;22121;-78
2023/07/29 10:28:47;;;;;;;18.50;12.70;;;;;;;;;;110196;1264;22107;-78
2023/07/29 10:31:19;;;;;;;7.30;2.80;;;;;;;;;;110478;1278;22197;-78
2023/07/29 10:33:48;;;;;;;4.00;1.70;;;;;;;;;;110276;1278;22111;-77
2023/07/29 10:42:31;;;;;;;4.80;2.30;;;;;;;;;;104177;1289;545052;-78
2023/07/29 10:44:58;;;;;;;5.80;2.10;;;;;;;;;;106057;1288;22656;-78
2023/07/29 10:47:29;;;;;;;4.00;1.90;;;;;;;;;;106688;1280;24356;-82
2023/07/29 10:49:57;;;;;;;5.90;2.20;;;;;;;;;;106773;1280;22533;-80
2023/07/29 10:52:28;;;;;;;4.10;2.20;;;;;;;;;;106563;1280;23900;-78
2023/07/29 10:54:55;;;;;;;3.60;1.50;;;;;;;;;;106342;1280;26630;-77
2023/07/29 10:57:35;;;;;;;3.60;1.50;;;;;;;;;;104175;1278;3373675;-80
2023/07/29 11:00:04;;;;;;;12.30;6.10;;;;;;;;;;106851;1278;22522;-84
2023/07/29 11:02:31;;;;;;;5.60;1.90;;;;;;;;;;106893;1259;25286;-77
2023/07/29 11:05:05;;;;;;;4.20;1.70;;;;;;;;;;106910;1276;22614;-84
2023/07/29 11:07:42;;;;;;;5.70;1.80;;;;;;;;;;106880;1277;25366;-77
2023/07/29 11:10:11;;;;;;;2.80;1.50;;;;;;;;;;106757;1277;22892;-81
2023/07/29 11:12:53;;;;;;;3.50;1.80;;;;;;;;;;106788;1259;22544;-78
2023/07/29 11:15:27;;;;;;;2.70;1.70;;;;;;;;;;106861;1277;23981;-83
2023/07/29 11:17:54;;;;;;;2.20;1.30;;;;;;;;;;106834;1277;22532;-76
2023/07/29 11:20:22;;;;;;;7.30;1.50;;;;;;;;;;106887;1277;22526;-82
2023/07/29 11:22:49;;;;;;;3.40;1.40;;;;;;;;;;106881;1260;26486;-81
2023/07/29 11:25:17;;;;;;;6.30;1.70;;;;;;;;;;106866;1277;24340;-82
2023/07/29 11:27:44;;;;;;;6.00;1.40;;;;;;;;;;106840;1277;25315;-82
2023/07/29 11:30:12;;;;;;;4.70;1.40;;;;;;;;;;106886;1277;22536;-82
2023/07/29 11:32:40;;;;;;;3.10;1.30;;;;;;;;;;106717;1261;22538;-79
2023/07/29 11:35:08;;;;;;;7.20;1.40;;;;;;;;;;106881;1270;24217;-79
2023/07/29 11:37:35;;;;;;;10.20;1.30;;;;;;;;;;106821;1270;22526;-79
2023/07/29 11:40:05;;;;;;;9.60;1.80;;;;;;;;;;106827;1270;22622;-78
2023/07/29 11:42:34;;;;;;;5.20;1.40;;;;;;;;;;106807;1263;22530;-77
2023/07/29 11:45:01;;;;;;;5.70;1.40;;;;;;;;;;106841;1273;22530;-77
2023/07/29 11:47:29;;;;;;;3.60;1.30;;;;;;;;;;107259;1278;22536;-79
2023/07/29 11:49:58;;;;;;;4.50;1.20;;;;;;;;;;106865;1270;22605;-77
2023/07/29 11:52:25;;;;;;;4.80;1.40;;;;;;;;;;106904;1270;24202;-79
2023/07/29 11:54:52;;;;;;;6.10;1.60;;;;;;;;;;106827;1256;24247;-82
2023/07/29 11:57:19;;;;;;;5.00;1.40;;;;;;;;;;106925;1275;24221;-83
2023/07/29 11:59:46;;;;;;;3.80;1.30;;;;;;;;;;107312;1275;24338;-77
2023/07/29 12:02:15;;;;;;;4.90;1.30;;;;;;;;;;107133;1275;24219;-85
2023/07/29 12:04:43;;;;;;;4.70;1.40;;;;;;;;;;107108;1257;22770;-79
2023/07/29 12:07:10;;;;;;;14.20;1.80;;;;;;;;;;107132;1275;24318;-79
2023/07/29 12:09:37;;;;;;;5.20;1.50;;;;;;;;;;106929;1275;22527;-80
2023/07/29 12:12:05;;;;;;;2.80;1.20;;;;;;;;;;106909;1275;25281;-77
2023/07/29 12:14:32;;;;;;;4.00;1.30;;;;;;;;;;107148;1254;22547;-85
2023/07/29 12:17:02;;;;;;;3.00;1.30;;;;;;;;;;106980;1275;23418;-78
2023/07/29 12:19:34;;;;;;;2.70;1.10;;;;;;;;;;106916;1275;22537;-78
2023/07/29 12:22:02;;;;;;;6.10;1.30;;;;;;;;;;106981;1275;24312;-80
2023/07/29 12:24:33;;;;;;;2.50;1.20;;;;;;;;;;106884;1259;22523;-82
2023/07/29 12:27:00;;;;;;;3.90;1.40;;;;;;;;;;106955;1275;25446;-77
2023/07/29 12:29:26;;;;;;;3.30;1.50;;;;;;;;;;106992;1265;24376;-78
2023/07/29 12:32:01;;;;;;;2.20;1.30;;;;;;;;;;106961;1275;22991;-81
2023/07/29 12:34:29;;;;;;;4.00;1.30;;;;;;;;;;107063;1275;22523;-80
2023/07/29 12:36:57;;;;;;;3.30;1.40;;;;;;;;;;107006;1275;25332;-80
2023/07/29 12:39:25;;;;;;;3.60;1.40;;;;;;;;;;110270;1275;22133;-79
2023/07/29 12:41:54;;;;;;;3.60;1.50;;;;;;;;;;110463;1275;22140;-76
2023/07/29 12:44:23;;;;;;;2.50;1.10;;;;;;;;;;110623;1256;22140;-75
2023/07/29 12:46:50;;;;;;;2.80;1.40;;;;;;;;;;110564;1269;22348;-76
2023/07/29 12:49:17;;;;;;;1.90;1.30;;;;;;;;;;110557;1275;22093;-77
2023/07/29 12:51:45;;;;;;;3.90;1.40;;;;;;;;;;110458;1275;22108;-76
2023/07/29 12:54:12;;;;;;;3.20;1.20;;;;;;;;;;110522;1253;22097;-76
2023/07/29 12:56:42;;;;;;;4.50;1.60;;;;;;;;;;110594;1274;22079;-76
2023/07/29 12:59:09;;;;;;;1.90;1.20;;;;;;;;;;110563;1275;22114;-77
2023/07/29 13:01:35;;;;;;;2.50;1.40;;;;;;;;;;110605;1275;22867;-75
2023/07/29 13:04:02;;;;;;;3.50;1.50;;;;;;;;;;110349;1254;23059;-80
2023/07/29 13:06:32;;;;;;;7.60;1.40;;;;;;;;;;110606;1275;22101;-77
2023/07/29 13:08:59;;;;;;;4.00;1.30;;;;;;;;;;110455;1275;22182;-77
2023/07/29 13:11:29;;;;;;;3.60;1.40;;;;;;;;;;110550;1275;22323;-78
2023/07/29 13:13:56;;;;;;;4.20;1.50;;;;;;;;;;110581;1275;22414;-77
2023/07/29 13:16:22;;;;;;;2.60;1.30;;;;;;;;;;110653;1256;22403;-77
2023/07/29 13:18:50;;;;;;;4.90;1.50;;;;;;;;;;110606;1274;22106;-79
2023/07/29 13:21:21;;;;;;;3.40;1.50;;;;;;;;;;110621;1272;22123;-77
2023/07/29 13:23:48;;;;;;;2.10;1.10;;;;;;;;;;110556;1268;22058;-77
2023/07/29 13:26:15;;;;;;;3.60;1.50;;;;;;;;;;110627;1269;22368;-77
2023/07/29 13:28:41;;;;;;;2.30;1.40;;;;;;;;;;110522;1275;22153;-78
2023/07/29 13:31:09;;;;;;;1.90;1.20;;;;;;;;;;110487;1262;22095;-76
2023/07/29 13:33:37;;;;;;;2.80;1.40;;;;;;;;;;110558;1275;22846;-78
2023/07/29 13:36:03;;;;;;;2.80;1.40;;;;;;;;;;110587;1257;22308;-77
2023/07/29 13:38:33;;;;;;;2.70;1.30;;;;;;;;;;110502;1275;22132;-77
2023/07/29 13:41:00;;;;;;;3.10;1.40;;;;;;;;;;110518;1273;22596;-77
2023/07/29 13:43:27;;;;;;;2.90;1.20;;;;;;;;;;110513;1275;22086;-77
2023/07/29 13:45:54;;;;;;;3.20;1.40;;;;;;;;;;110649;1256;22128;-77
2023/07/29 13:48:21;;;;;;;3.30;1.20;;;;;;;;;;110523;1275;22507;-77
2023/07/29 13:50:48;;;;;;;2.40;1.30;;;;;;;;;;110484;1275;22998;-78
2023/07/29 13:53:17;;;;;;;2.60;1.40;;;;;;;;;;110508;1275;22079;-80
2023/07/29 13:55:44;;;;;;;2.60;1.30;;;;;;;;;;110571;1254;22173;-76
2023/07/29 13:58:11;;;;;;;3.10;1.40;;;;;;;;;;110491;1275;22194;-77
2023/07/29 14:00:43;;;;;;;4.00;1.30;;;;;;;;;;110515;1275;22099;-81
2023/07/29 14:03:10;;;;;;;2.60;1.30;;;;;;;;;;110423;1275;22752;-78
2023/07/29 14:05:44;;;;;;;2.00;1.30;;;;;;;;;;110552;1253;22807;-77
2023/07/29 14:08:11;;;;;;;3.30;1.50;;;;;;;;;;110480;1275;22116;-78
2023/07/29 14:10:38;;;;;;;2.30;1.40;;;;;;;;;;110470;1276;22811;-77
2023/07/29 14:13:05;;;;;;;3.50;1.70;;;;;;;;;;110466;1276;22107;-77
2023/07/29 14:15:32;;;;;;;2.50;1.40;;;;;;;;;;110498;1253;23017;-77
2023/07/29 14:18:02;;;;;;;2.90;1.30;;;;;;;;;;110415;1275;22952;-78
2023/07/29 14:20:29;;;;;;;3.30;1.60;;;;;;;;;;110496;1273;22847;-78
2023/07/29 14:22:56;;;;;;;4.00;1.50;;;;;;;;;;110500;1275;22141;-77
2023/07/29 14:25:23;;;;;;;2.70;1.50;;;;;;;;;;110497;1275;22080;-79
2023/07/29 14:27:50;;;;;;;2.70;1.40;;;;;;;;;;110926;1256;22909;-77
2023/07/29 14:30:17;;;;;;;3.40;1.60;;;;;;;;;;110412;1275;22140;-78
2023/07/29 14:32:44;;;;;;;2.50;1.50;;;;;;;;;;110479;1275;22107;-77
2023/07/29 14:35:11;;;;;;;2.60;1.40;;;;;;;;;;110490;1275;22103;-80
2023/07/29 14:37:41;;;;;;;2.90;1.30;;;;;;;;;;110469;1253;22162;-78
2023/07/29 14:40:10;;;;;;;2.70;1.40;;;;;;;;;;110405;1277;22100;-79